sensor_id;sensor_type;location;lat;lon;timestamp;temperature;humidity
22645;DHT22;11489;50.834;6.752;2023-04-16T00:01:11;7.80;91.50
22645;DHT22;11489;50.834;6.752;2023-04-16T00:03:36;7.80;91.50
22645;DHT22;11489;50.834;6.752;2023-04-16T00:06:02;7.80;91.50
22645;DHT22;11489;50.834;6.752;2023-04-16T00:08:28;7.80;91.50
22645;DHT22;11489;50.834;6.752;2023-04-16T00:10:53;7.80;91.60
22645;DHT22;11489;50.834;6.752;2023-04-16T00:13:19;7.80;91.50
22645;DHT22;11489;50.834;6.752;2023-04-16T00:15:45;7.80;91.60
22645;DHT22;11489;50.834;6.752;2023-04-16T00:18:11;7.80;91.60
22645;DHT22;11489;50.834;6.752;2023-04-16T00:20:36;7.80;91.70
22645;DHT22;11489;50.834;6.752;2023-04-16T00:23:02;7.90;91.70
22645;DHT22;11489;50.834;6.752;2023-04-16T00:25:28;7.80;91.70
22645;DHT22;11489;50.834;6.752;2023-04-16T00:27:53;7.90;91.70
22645;DHT22;11489;50.834;6.752;2023-04-16T00:30:19;7.90;91.70
22645;DHT22;11489;50.834;6.752;2023-04-16T00:32:45;7.90;91.70
22645;DHT22;11489;50.834;6.752;2023-04-16T00:35:10;7.90;91.70
22645;DHT22;11489;50.834;6.752;2023-04-16T00:37:36;7.90;91.70
22645;DHT22;11489;50.834;6.752;2023-04-16T00:40:02;7.90;91.80
22645;DHT22;11489;50.834;6.752;2023-04-16T00:42:27;7.90;91.80
22645;DHT22;11489;50.834;6.752;2023-04-16T00:44:53;7.90;91.80
22645;DHT22;11489;50.834;6.752;2023-04-16T00:47:19;7.90;91.80
22645;DHT22;11489;50.834;6.752;2023-04-16T00:49:46;7.90;91.70
22645;DHT22;11489;50.834;6.752;2023-04-16T00:52:12;7.90;91.80
22645;DHT22;11489;50.834;6.752;2023-04-16T00:54:38;7.90;91.80
22645;DHT22;11489;50.834;6.752;2023-04-16T00:57:05;7.90;91.70
22645;DHT22;11489;50.834;6.752;2023-04-16T00:59:31;7.90;91.80
22645;DHT22;11489;50.834;6.752;2023-04-16T01:01:57;7.90;91.80
22645;DHT22;11489;50.834;6.752;2023-04-16T01:04:22;7.90;91.80
22645;DHT22;11489;50.834;6.752;2023-04-16T01:06:48;7.90;92.00
22645;DHT22;11489;50.834;6.752;2023-04-16T01:09:14;7.90;91.80
22645;DHT22;11489;50.834;6.752;2023-04-16T01:11:39;7.90;91.80
22645;DHT22;11489;50.834;6.752;2023-04-16T01:14:05;7.90;91.80
22645;DHT22;11489;50.834;6.752;2023-04-16T01:16:31;7.90;91.80
22645;DHT22;11489;50.834;6.752;2023-04-16T01:18:57;7.90;91.80
22645;DHT22;11489;50.834;6.752;2023-04-16T01:21:23;7.90;91.80
22645;DHT22;11489;50.834;6.752;2023-04-16T01:23:48;7.90;91.80
22645;DHT22;11489;50.834;6.752;2023-04-16T01:26:14;7.90;91.80
22645;DHT22;11489;50.834;6.752;2023-04-16T01:28:40;7.90;91.90
22645;DHT22;11489;50.834;6.752;2023-04-16T01:31:06;7.90;91.90
22645;DHT22;11489;50.834;6.752;2023-04-16T01:33:32;7.90;91.90
22645;DHT22;11489;50.834;6.752;2023-04-16T01:35:57;7.90;92.00
22645;DHT22;11489;50.834;6.752;2023-04-16T01:38:23;7.90;92.00
22645;DHT22;11489;50.834;6.752;2023-04-16T01:40:48;7.90;92.00
22645;DHT22;11489;50.834;6.752;2023-04-16T01:43:14;7.90;92.00
22645;DHT22;11489;50.834;6.752;2023-04-16T01:45:40;7.90;91.90
22645;DHT22;11489;50.834;6.752;2023-04-16T01:48:06;7.90;92.00
22645;DHT22;11489;50.834;6.752;2023-04-16T01:50:32;7.90;92.00
22645;DHT22;11489;50.834;6.752;2023-04-16T01:52:58;7.90;92.00
22645;DHT22;11489;50.834;6.752;2023-04-16T01:55:23;7.90;92.00
22645;DHT22;11489;50.834;6.752;2023-04-16T01:57:49;7.90;92.00
22645;DHT22;11489;50.834;6.752;2023-04-16T02:00:15;7.90;92.00
22645;DHT22;11489;50.834;6.752;2023-04-16T02:02:41;7.90;92.00
22645;DHT22;11489;50.834;6.752;2023-04-16T02:05:06;7.80;92.00
22645;DHT22;11489;50.834;6.752;2023-04-16T02:07:32;7.90;92.30
22645;DHT22;11489;50.834;6.752;2023-04-16T02:09:58;7.90;92.10
22645;DHT22;11489;50.834;6.752;2023-04-16T02:12:24;7.80;92.20
22645;DHT22;11489;50.834;6.752;2023-04-16T02:14:49;7.80;92.10
22645;DHT22;11489;50.834;6.752;2023-04-16T02:17:15;7.80;92.10
22645;DHT22;11489;50.834;6.752;2023-04-16T02:19:41;7.80;92.10
22645;DHT22;11489;50.834;6.752;2023-04-16T02:22:07;7.80;92.20
22645;DHT22;11489;50.834;6.752;2023-04-16T02:24:32;7.80;92.20
22645;DHT22;11489;50.834;6.752;2023-04-16T02:26:58;7.80;92.20
22645;DHT22;11489;50.834;6.752;2023-04-16T02:29:24;7.80;92.20
22645;DHT22;11489;50.834;6.752;2023-04-16T02:31:49;7.80;92.20
22645;DHT22;11489;50.834;6.752;2023-04-16T02:34:15;7.80;92.30
22645;DHT22;11489;50.834;6.752;2023-04-16T02:36:41;7.80;92.40
22645;DHT22;11489;50.834;6.752;2023-04-16T02:39:06;7.80;92.30
22645;DHT22;11489;50.834;6.752;2023-04-16T02:41:32;7.70;92.30
22645;DHT22;11489;50.834;6.752;2023-04-16T02:43:58;7.80;92.70
22645;DHT22;11489;50.834;6.752;2023-04-16T02:46:23;7.80;92.40
22645;DHT22;11489;50.834;6.752;2023-04-16T02:48:49;7.80;92.40
22645;DHT22;11489;50.834;6.752;2023-04-16T02:51:15;7.80;92.50
22645;DHT22;11489;50.834;6.752;2023-04-16T02:53:40;7.80;92.50
22645;DHT22;11489;50.834;6.752;2023-04-16T02:56:10;7.80;92.50
22645;DHT22;11489;50.834;6.752;2023-04-16T02:58:36;7.80;92.50
22645;DHT22;11489;50.834;6.752;2023-04-16T03:01:02;7.80;92.50
22645;DHT22;11489;50.834;6.752;2023-04-16T03:03:27;7.80;92.50
22645;DHT22;11489;50.834;6.752;2023-04-16T03:05:53;7.80;92.50
22645;DHT22;11489;50.834;6.752;2023-04-16T03:08:19;7.80;92.60
22645;DHT22;11489;50.834;6.752;2023-04-16T03:10:44;7.80;92.60
22645;DHT22;11489;50.834;6.752;2023-04-16T03:13:10;7.90;92.60
22645;DHT22;11489;50.834;6.752;2023-04-16T03:15:36;7.80;92.70
22645;DHT22;11489;50.834;6.752;2023-04-16T03:18:01;7.90;92.60
22645;DHT22;11489;50.834;6.752;2023-04-16T03:20:27;7.90;92.70
22645;DHT22;11489;50.834;6.752;2023-04-16T03:22:53;7.90;92.70
22645;DHT22;11489;50.834;6.752;2023-04-16T03:25:18;7.90;92.60
22645;DHT22;11489;50.834;6.752;2023-04-16T03:27:44;7.90;92.70
22645;DHT22;11489;50.834;6.752;2023-04-16T03:30:10;7.90;92.70
22645;DHT22;11489;50.834;6.752;2023-04-16T03:32:36;7.90;92.70
22645;DHT22;11489;50.834;6.752;2023-04-16T03:35:03;7.90;92.70
22645;DHT22;11489;50.834;6.752;2023-04-16T03:37:29;7.90;92.70
22645;DHT22;11489;50.834;6.752;2023-04-16T03:39:55;7.90;92.70
22645;DHT22;11489;50.834;6.752;2023-04-16T03:42:20;7.90;92.70
22645;DHT22;11489;50.834;6.752;2023-04-16T03:44:46;7.90;92.70
22645;DHT22;11489;50.834;6.752;2023-04-16T03:47:12;8.00;92.70
22645;DHT22;11489;50.834;6.752;2023-04-16T03:49:37;7.90;92.70
22645;DHT22;11489;50.834;6.752;2023-04-16T03:52:03;7.90;92.70
22645;DHT22;11489;50.834;6.752;2023-04-16T03:54:29;7.90;92.60
22645;DHT22;11489;50.834;6.752;2023-04-16T03:56:54;8.00;92.70
22645;DHT22;11489;50.834;6.752;2023-04-16T03:59:21;7.90;92.80
22645;DHT22;11489;50.834;6.752;2023-04-16T04:01:47;8.00;92.70
22645;DHT22;11489;50.834;6.752;2023-04-16T04:04:12;8.00;92.70
22645;DHT22;11489;50.834;6.752;2023-04-16T04:06:38;8.00;92.70
22645;DHT22;11489;50.834;6.752;2023-04-16T04:09:04;8.00;92.70
22645;DHT22;11489;50.834;6.752;2023-04-16T04:11:30;8.00;92.70
22645;DHT22;11489;50.834;6.752;2023-04-16T04:13:56;8.00;92.70
22645;DHT22;11489;50.834;6.752;2023-04-16T04:16:21;8.00;92.70
22645;DHT22;11489;50.834;6.752;2023-04-16T04:18:47;8.00;92.60
22645;DHT22;11489;50.834;6.752;2023-04-16T04:21:12;8.00;92.70
22645;DHT22;11489;50.834;6.752;2023-04-16T04:23:38;8.00;92.80
22645;DHT22;11489;50.834;6.752;2023-04-16T04:26:06;8.00;92.80
22645;DHT22;11489;50.834;6.752;2023-04-16T04:28:32;8.00;92.80
22645;DHT22;11489;50.834;6.752;2023-04-16T04:30:58;8.00;92.80
22645;DHT22;11489;50.834;6.752;2023-04-16T04:33:27;8.00;92.80
22645;DHT22;11489;50.834;6.752;2023-04-16T04:35:53;8.00;92.80
22645;DHT22;11489;50.834;6.752;2023-04-16T04:38:20;8.00;92.90
22645;DHT22;11489;50.834;6.752;2023-04-16T04:40:47;8.00;92.90
22645;DHT22;11489;50.834;6.752;2023-04-16T04:43:13;8.00;93.00
22645;DHT22;11489;50.834;6.752;2023-04-16T04:45:39;8.00;93.00
22645;DHT22;11489;50.834;6.752;2023-04-16T04:48:05;8.00;92.90
22645;DHT22;11489;50.834;6.752;2023-04-16T04:50:31;8.00;92.90
22645;DHT22;11489;50.834;6.752;2023-04-16T04:52:57;8.00;93.00
22645;DHT22;11489;50.834;6.752;2023-04-16T04:55:22;8.00;93.00
22645;DHT22;11489;50.834;6.752;2023-04-16T04:57:49;8.00;92.90
22645;DHT22;11489;50.834;6.752;2023-04-16T05:00:14;8.00;93.00
22645;DHT22;11489;50.834;6.752;2023-04-16T05:02:40;8.10;93.00
22645;DHT22;11489;50.834;6.752;2023-04-16T05:05:06;8.00;93.00
22645;DHT22;11489;50.834;6.752;2023-04-16T05:07:32;8.10;92.90
22645;DHT22;11489;50.834;6.752;2023-04-16T05:09:58;8.00;92.90
22645;DHT22;11489;50.834;6.752;2023-04-16T05:12:23;8.00;92.90
22645;DHT22;11489;50.834;6.752;2023-04-16T05:14:49;8.00;92.90
22645;DHT22;11489;50.834;6.752;2023-04-16T05:17:15;8.10;93.00
22645;DHT22;11489;50.834;6.752;2023-04-16T05:19:40;8.00;93.00
22645;DHT22;11489;50.834;6.752;2023-04-16T05:22:06;8.10;93.00
22645;DHT22;11489;50.834;6.752;2023-04-16T05:24:32;8.10;93.10
22645;DHT22;11489;50.834;6.752;2023-04-16T05:26:58;8.10;93.10
22645;DHT22;11489;50.834;6.752;2023-04-16T05:29:23;8.10;93.10
22645;DHT22;11489;50.834;6.752;2023-04-16T05:31:49;8.10;93.10
22645;DHT22;11489;50.834;6.752;2023-04-16T05:34:15;8.10;93.10
22645;DHT22;11489;50.834;6.752;2023-04-16T05:36:41;8.10;93.20
22645;DHT22;11489;50.834;6.752;2023-04-16T05:39:07;8.10;93.10
22645;DHT22;11489;50.834;6.752;2023-04-16T05:41:33;8.10;93.10
22645;DHT22;11489;50.834;6.752;2023-04-16T05:43:58;8.10;93.20
22645;DHT22;11489;50.834;6.752;2023-04-16T05:46:24;8.20;93.20
22645;DHT22;11489;50.834;6.752;2023-04-16T05:48:51;8.10;93.20
22645;DHT22;11489;50.834;6.752;2023-04-16T05:51:16;8.10;93.30
22645;DHT22;11489;50.834;6.752;2023-04-16T05:53:42;8.20;93.30
22645;DHT22;11489;50.834;6.752;2023-04-16T05:56:08;8.20;93.30
22645;DHT22;11489;50.834;6.752;2023-04-16T05:58:34;8.20;93.30
22645;DHT22;11489;50.834;6.752;2023-04-16T06:01:00;8.20;93.30
22645;DHT22;11489;50.834;6.752;2023-04-16T06:03:26;8.20;93.30
22645;DHT22;11489;50.834;6.752;2023-04-16T06:05:52;8.20;93.30
22645;DHT22;11489;50.834;6.752;2023-04-16T06:08:18;8.20;93.30
22645;DHT22;11489;50.834;6.752;2023-04-16T06:10:46;8.20;93.40
22645;DHT22;11489;50.834;6.752;2023-04-16T06:13:12;8.20;93.30
22645;DHT22;11489;50.834;6.752;2023-04-16T06:15:38;8.20;93.40
22645;DHT22;11489;50.834;6.752;2023-04-16T06:18:04;8.20;93.40
22645;DHT22;11489;50.834;6.752;2023-04-16T06:20:30;8.30;93.50
22645;DHT22;11489;50.834;6.752;2023-04-16T06:22:56;8.20;93.40
22645;DHT22;11489;50.834;6.752;2023-04-16T06:25:22;8.30;93.50
22645;DHT22;11489;50.834;6.752;2023-04-16T06:27:47;8.30;93.40
22645;DHT22;11489;50.834;6.752;2023-04-16T06:30:14;8.30;93.40
22645;DHT22;11489;50.834;6.752;2023-04-16T06:32:41;8.30;93.40
22645;DHT22;11489;50.834;6.752;2023-04-16T06:35:07;8.30;93.50
22645;DHT22;11489;50.834;6.752;2023-04-16T06:37:33;8.30;93.40
22645;DHT22;11489;50.834;6.752;2023-04-16T06:39:59;8.30;93.50
22645;DHT22;11489;50.834;6.752;2023-04-16T06:42:25;8.30;93.50
22645;DHT22;11489;50.834;6.752;2023-04-16T06:44:51;8.30;93.50
22645;DHT22;11489;50.834;6.752;2023-04-16T06:47:16;8.30;93.50
22645;DHT22;11489;50.834;6.752;2023-04-16T06:49:42;8.40;93.50
22645;DHT22;11489;50.834;6.752;2023-04-16T06:52:08;8.40;93.50
22645;DHT22;11489;50.834;6.752;2023-04-16T06:54:34;8.40;93.50
22645;DHT22;11489;50.834;6.752;2023-04-16T06:57:00;8.40;93.60
22645;DHT22;11489;50.834;6.752;2023-04-16T06:59:25;8.40;93.60
22645;DHT22;11489;50.834;6.752;2023-04-16T07:01:51;8.40;93.60
22645;DHT22;11489;50.834;6.752;2023-04-16T07:04:17;8.40;93.60
22645;DHT22;11489;50.834;6.752;2023-04-16T07:06:43;8.40;93.60
22645;DHT22;11489;50.834;6.752;2023-04-16T07:09:08;8.40;93.60
22645;DHT22;11489;50.834;6.752;2023-04-16T07:11:34;8.40;93.70
22645;DHT22;11489;50.834;6.752;2023-04-16T07:14:00;8.40;93.70
22645;DHT22;11489;50.834;6.752;2023-04-16T07:16:26;8.50;93.70
22645;DHT22;11489;50.834;6.752;2023-04-16T07:18:51;8.50;94.00
22645;DHT22;11489;50.834;6.752;2023-04-16T07:21:17;8.50;93.70
22645;DHT22;11489;50.834;6.752;2023-04-16T07:23:42;8.50;93.70
22645;DHT22;11489;50.834;6.752;2023-04-16T07:26:08;8.50;93.70
22645;DHT22;11489;50.834;6.752;2023-04-16T07:28:34;8.50;93.70
22645;DHT22;11489;50.834;6.752;2023-04-16T07:31:00;8.50;93.70
22645;DHT22;11489;50.834;6.752;2023-04-16T07:33:26;8.60;93.80
22645;DHT22;11489;50.834;6.752;2023-04-16T07:35:51;8.60;93.70
22645;DHT22;11489;50.834;6.752;2023-04-16T07:38:17;8.60;93.70
22645;DHT22;11489;50.834;6.752;2023-04-16T07:40:43;8.60;93.70
22645;DHT22;11489;50.834;6.752;2023-04-16T07:43:08;8.60;93.70
22645;DHT22;11489;50.834;6.752;2023-04-16T07:45:34;8.60;93.70
22645;DHT22;11489;50.834;6.752;2023-04-16T07:48:00;8.60;93.70
22645;DHT22;11489;50.834;6.752;2023-04-16T07:50:26;8.60;93.70
22645;DHT22;11489;50.834;6.752;2023-04-16T07:52:52;8.60;93.70
22645;DHT22;11489;50.834;6.752;2023-04-16T07:55:18;8.60;93.80
22645;DHT22;11489;50.834;6.752;2023-04-16T07:57:44;8.60;93.80
22645;DHT22;11489;50.834;6.752;2023-04-16T08:00:10;8.60;93.80
22645;DHT22;11489;50.834;6.752;2023-04-16T08:02:36;8.60;93.90
22645;DHT22;11489;50.834;6.752;2023-04-16T08:05:02;8.70;93.90
22645;DHT22;11489;50.834;6.752;2023-04-16T08:07:27;8.70;93.90
22645;DHT22;11489;50.834;6.752;2023-04-16T08:09:53;8.70;94.00
22645;DHT22;11489;50.834;6.752;2023-04-16T08:12:20;8.70;94.00
22645;DHT22;11489;50.834;6.752;2023-04-16T08:14:46;8.70;94.00
22645;DHT22;11489;50.834;6.752;2023-04-16T08:17:13;8.80;94.00
22645;DHT22;11489;50.834;6.752;2023-04-16T08:19:39;8.80;94.00
22645;DHT22;11489;50.834;6.752;2023-04-16T08:22:05;8.80;94.10
22645;DHT22;11489;50.834;6.752;2023-04-16T08:24:30;8.90;94.00
22645;DHT22;11489;50.834;6.752;2023-04-16T08:26:56;8.90;94.10
22645;DHT22;11489;50.834;6.752;2023-04-16T08:29:22;8.90;94.20
22645;DHT22;11489;50.834;6.752;2023-04-16T08:31:54;9.00;94.30
22645;DHT22;11489;50.834;6.752;2023-04-16T08:34:19;9.00;94.30
22645;DHT22;11489;50.834;6.752;2023-04-16T08:36:46;9.10;94.30
22645;DHT22;11489;50.834;6.752;2023-04-16T08:39:11;9.10;94.20
22645;DHT22;11489;50.834;6.752;2023-04-16T08:41:40;9.20;94.10
22645;DHT22;11489;50.834;6.752;2023-04-16T08:44:10;9.20;94.00
22645;DHT22;11489;50.834;6.752;2023-04-16T08:46:37;9.20;93.90
22645;DHT22;11489;50.834;6.752;2023-04-16T08:49:06;9.20;94.20
22645;DHT22;11489;50.834;6.752;2023-04-16T08:51:35;9.20;93.80
22645;DHT22;11489;50.834;6.752;2023-04-16T08:54:07;9.20;93.70
22645;DHT22;11489;50.834;6.752;2023-04-16T08:56:35;9.20;93.80
22645;DHT22;11489;50.834;6.752;2023-04-16T08:59:02;9.20;93.80
22645;DHT22;11489;50.834;6.752;2023-04-16T09:01:32;9.20;93.80
22645;DHT22;11489;50.834;6.752;2023-04-16T09:03:58;9.20;93.80
22645;DHT22;11489;50.834;6.752;2023-04-16T09:06:26;9.20;93.80
22645;DHT22;11489;50.834;6.752;2023-04-16T09:08:53;9.20;93.80
22645;DHT22;11489;50.834;6.752;2023-04-16T09:11:19;9.20;93.90
22645;DHT22;11489;50.834;6.752;2023-04-16T09:13:46;9.20;93.90
22645;DHT22;11489;50.834;6.752;2023-04-16T09:16:12;9.20;94.00
22645;DHT22;11489;50.834;6.752;2023-04-16T09:18:38;9.30;94.00
22645;DHT22;11489;50.834;6.752;2023-04-16T09:21:04;9.30;94.10
22645;DHT22;11489;50.834;6.752;2023-04-16T09:23:32;9.30;94.00
22645;DHT22;11489;50.834;6.752;2023-04-16T09:25:58;9.40;94.10
22645;DHT22;11489;50.834;6.752;2023-04-16T09:28:46;9.40;94.00
22645;DHT22;11489;50.834;6.752;2023-04-16T09:31:17;9.40;93.90
22645;DHT22;11489;50.834;6.752;2023-04-16T09:33:59;9.50;94.00
22645;DHT22;11489;50.834;6.752;2023-04-16T09:36:25;9.50;94.00
22645;DHT22;11489;50.834;6.752;2023-04-16T09:38:53;9.50;94.00
22645;DHT22;11489;50.834;6.752;2023-04-16T09:41:19;9.60;94.10
22645;DHT22;11489;50.834;6.752;2023-04-16T09:44:02;9.60;94.10
22645;DHT22;11489;50.834;6.752;2023-04-16T09:46:36;9.60;94.00
22645;DHT22;11489;50.834;6.752;2023-04-16T09:49:14;9.70;94.10
22645;DHT22;11489;50.834;6.752;2023-04-16T09:51:41;9.70;94.10
22645;DHT22;11489;50.834;6.752;2023-04-16T09:54:07;9.80;94.10
22645;DHT22;11489;50.834;6.752;2023-04-16T09:56:42;9.80;94.10
22645;DHT22;11489;50.834;6.752;2023-04-16T09:59:20;9.90;94.10
22645;DHT22;11489;50.834;6.752;2023-04-16T10:01:47;9.90;94.10
22645;DHT22;11489;50.834;6.752;2023-04-16T10:04:17;10.00;94.20
22645;DHT22;11489;50.834;6.752;2023-04-16T10:06:43;10.10;94.20
22645;DHT22;11489;50.834;6.752;2023-04-16T10:09:11;10.20;94.20
22645;DHT22;11489;50.834;6.752;2023-04-16T10:11:36;10.20;94.30
22645;DHT22;11489;50.834;6.752;2023-04-16T10:14:02;10.30;94.50
22645;DHT22;11489;50.834;6.752;2023-04-16T10:16:29;10.40;95.00
22645;DHT22;11489;50.834;6.752;2023-04-16T10:18:55;10.60;94.70
22645;DHT22;11489;50.834;6.752;2023-04-16T10:21:21;10.70;94.70
22645;DHT22;11489;50.834;6.752;2023-04-16T10:23:47;10.80;94.60
22645;DHT22;11489;50.834;6.752;2023-04-16T10:26:14;11.00;94.50
22645;DHT22;11489;50.834;6.752;2023-04-16T10:28:44;11.10;94.40
22645;DHT22;11489;50.834;6.752;2023-04-16T10:31:10;11.20;94.30
22645;DHT22;11489;50.834;6.752;2023-04-16T10:33:39;11.30;94.20
22645;DHT22;11489;50.834;6.752;2023-04-16T10:36:17;11.40;93.90
22645;DHT22;11489;50.834;6.752;2023-04-16T10:38:49;11.50;93.70
22645;DHT22;11489;50.834;6.752;2023-04-16T10:41:18;11.50;93.60
22645;DHT22;11489;50.834;6.752;2023-04-16T10:43:46;11.50;93.30
22645;DHT22;11489;50.834;6.752;2023-04-16T10:46:23;11.50;93.30
22645;DHT22;11489;50.834;6.752;2023-04-16T10:48:52;11.50;93.00
22645;DHT22;11489;50.834;6.752;2023-04-16T10:54:22;11.60;93.30
22645;DHT22;11489;50.834;6.752;2023-04-16T10:56:49;11.60;93.30
22645;DHT22;11489;50.834;6.752;2023-04-16T10:59:17;11.60;93.20
22645;DHT22;11489;50.834;6.752;2023-04-16T11:01:55;11.60;93.10
22645;DHT22;11489;50.834;6.752;2023-04-16T11:07:04;11.70;93.20
22645;DHT22;11489;50.834;6.752;2023-04-16T11:09:56;11.70;92.80
22645;DHT22;11489;50.834;6.752;2023-04-16T11:12:41;11.70;92.90
22645;DHT22;11489;50.834;6.752;2023-04-16T11:15:16;11.70;92.60
22645;DHT22;11489;50.834;6.752;2023-04-16T11:17:48;11.60;92.80
22645;DHT22;11489;50.834;6.752;2023-04-16T11:20:24;11.60;93.50
22645;DHT22;11489;50.834;6.752;2023-04-16T11:22:52;11.70;93.40
22645;DHT22;11489;50.834;6.752;2023-04-16T11:25:20;11.70;93.40
22645;DHT22;11489;50.834;6.752;2023-04-16T11:27:46;11.80;93.40
22645;DHT22;11489;50.834;6.752;2023-04-16T11:30:12;11.90;93.40
22645;DHT22;11489;50.834;6.752;2023-04-16T11:32:38;12.00;93.50
22645;DHT22;11489;50.834;6.752;2023-04-16T11:35:13;12.00;93.40
22645;DHT22;11489;50.834;6.752;2023-04-16T11:37:40;12.10;92.90
22645;DHT22;11489;50.834;6.752;2023-04-16T11:40:07;12.20;93.00
22645;DHT22;11489;50.834;6.752;2023-04-16T11:42:37;12.30;93.00
22645;DHT22;11489;50.834;6.752;2023-04-16T11:45:06;12.30;93.00
22645;DHT22;11489;50.834;6.752;2023-04-16T11:47:48;12.30;93.00
22645;DHT22;11489;50.834;6.752;2023-04-16T11:50:21;12.40;92.90
22645;DHT22;11489;50.834;6.752;2023-04-16T11:52:48;12.50;93.30
22645;DHT22;11489;50.834;6.752;2023-04-16T11:55:14;12.60;93.40
22645;DHT22;11489;50.834;6.752;2023-04-16T11:57:40;12.70;93.50
22645;DHT22;11489;50.834;6.752;2023-04-16T12:00:06;12.90;93.70
22645;DHT22;11489;50.834;6.752;2023-04-16T12:02:39;13.00;93.20
22645;DHT22;11489;50.834;6.752;2023-04-16T12:05:24;13.00;92.80
22645;DHT22;11489;50.834;6.752;2023-04-16T12:07:51;13.10;92.30
22645;DHT22;11489;50.834;6.752;2023-04-16T12:10:17;13.10;92.20
22645;DHT22;11489;50.834;6.752;2023-04-16T12:12:43;13.10;92.00
22645;DHT22;11489;50.834;6.752;2023-04-16T12:15:09;13.00;91.90
22645;DHT22;11489;50.834;6.752;2023-04-16T12:17:35;13.00;91.70
22645;DHT22;11489;50.834;6.752;2023-04-16T12:20:02;12.90;91.70
22645;DHT22;11489;50.834;6.752;2023-04-16T12:22:35;12.90;91.90
22645;DHT22;11489;50.834;6.752;2023-04-16T12:25:05;12.80;91.90
22645;DHT22;11489;50.834;6.752;2023-04-16T12:27:50;12.90;92.10
22645;DHT22;11489;50.834;6.752;2023-04-16T12:30:18;12.90;91.50
22645;DHT22;11489;50.834;6.752;2023-04-16T12:32:50;12.90;92.10
22645;DHT22;11489;50.834;6.752;2023-04-16T12:35:32;13.00;92.00
22645;DHT22;11489;50.834;6.752;2023-04-16T12:37:59;13.00;91.70
22645;DHT22;11489;50.834;6.752;2023-04-16T12:40:24;13.10;92.50
22645;DHT22;11489;50.834;6.752;2023-04-16T12:42:50;13.20;92.50
22645;DHT22;11489;50.834;6.752;2023-04-16T12:45:16;13.20;92.30
22645;DHT22;11489;50.834;6.752;2023-04-16T12:47:42;13.30;92.00
22645;DHT22;11489;50.834;6.752;2023-04-16T12:50:08;13.40;91.90
22645;DHT22;11489;50.834;6.752;2023-04-16T12:52:33;13.40;92.00
22645;DHT22;11489;50.834;6.752;2023-04-16T12:55:03;13.50;91.90
22645;DHT22;11489;50.834;6.752;2023-04-16T12:57:29;13.50;91.60
22645;DHT22;11489;50.834;6.752;2023-04-16T12:59:55;13.50;91.50
22645;DHT22;11489;50.834;6.752;2023-04-16T13:02:21;13.50;91.60
22645;DHT22;11489;50.834;6.752;2023-04-16T13:04:48;13.50;91.90
22645;DHT22;11489;50.834;6.752;2023-04-16T13:07:14;13.50;91.70
22645;DHT22;11489;50.834;6.752;2023-04-16T13:09:41;13.50;91.70
22645;DHT22;11489;50.834;6.752;2023-04-16T13:12:07;13.60;91.70
22645;DHT22;11489;50.834;6.752;2023-04-16T13:14:33;13.70;91.70
22645;DHT22;11489;50.834;6.752;2023-04-16T13:16:58;13.70;91.60
22645;DHT22;11489;50.834;6.752;2023-04-16T13:19:24;13.70;91.40
22645;DHT22;11489;50.834;6.752;2023-04-16T13:21:50;13.80;91.20
22645;DHT22;11489;50.834;6.752;2023-04-16T13:24:16;13.70;91.10
22645;DHT22;11489;50.834;6.752;2023-04-16T13:26:41;13.70;91.20
22645;DHT22;11489;50.834;6.752;2023-04-16T13:29:08;13.80;91.50
22645;DHT22;11489;50.834;6.752;2023-04-16T13:31:34;13.80;91.10
22645;DHT22;11489;50.834;6.752;2023-04-16T13:33:59;13.80;91.10
22645;DHT22;11489;50.834;6.752;2023-04-16T13:36:25;13.90;91.10
22645;DHT22;11489;50.834;6.752;2023-04-16T13:38:51;13.90;91.00
22645;DHT22;11489;50.834;6.752;2023-04-16T13:41:17;13.90;90.90
22645;DHT22;11489;50.834;6.752;2023-04-16T13:43:43;13.90;90.80
22645;DHT22;11489;50.834;6.752;2023-04-16T13:46:08;13.90;90.60
22645;DHT22;11489;50.834;6.752;2023-04-16T13:48:34;13.90;90.50
22645;DHT22;11489;50.834;6.752;2023-04-16T13:51:00;13.90;90.60
22645;DHT22;11489;50.834;6.752;2023-04-16T13:53:26;13.90;90.50
22645;DHT22;11489;50.834;6.752;2023-04-16T13:55:52;13.90;90.50
22645;DHT22;11489;50.834;6.752;2023-04-16T13:58:18;13.90;90.40
22645;DHT22;11489;50.834;6.752;2023-04-16T14:00:44;13.90;90.20
22645;DHT22;11489;50.834;6.752;2023-04-16T14:03:10;13.80;90.40
22645;DHT22;11489;50.834;6.752;2023-04-16T14:05:35;13.80;90.40
22645;DHT22;11489;50.834;6.752;2023-04-16T14:08:01;13.80;90.30
22645;DHT22;11489;50.834;6.752;2023-04-16T14:10:27;13.70;90.40
22645;DHT22;11489;50.834;6.752;2023-04-16T14:12:53;13.70;90.30
22645;DHT22;11489;50.834;6.752;2023-04-16T14:15:19;13.70;90.40
22645;DHT22;11489;50.834;6.752;2023-04-16T14:17:45;13.70;90.40
22645;DHT22;11489;50.834;6.752;2023-04-16T14:20:12;13.80;90.50
22645;DHT22;11489;50.834;6.752;2023-04-16T14:22:38;13.80;90.60
22645;DHT22;11489;50.834;6.752;2023-04-16T14:25:05;13.80;90.70
22645;DHT22;11489;50.834;6.752;2023-04-16T14:27:31;13.80;90.30
22645;DHT22;11489;50.834;6.752;2023-04-16T14:29:57;13.90;90.30
22645;DHT22;11489;50.834;6.752;2023-04-16T14:32:23;13.90;90.20
22645;DHT22;11489;50.834;6.752;2023-04-16T14:34:48;13.90;90.30
22645;DHT22;11489;50.834;6.752;2023-04-16T14:37:16;13.90;90.30
22645;DHT22;11489;50.834;6.752;2023-04-16T14:39:42;14.00;90.20
22645;DHT22;11489;50.834;6.752;2023-04-16T14:42:08;14.00;90.10
22645;DHT22;11489;50.834;6.752;2023-04-16T14:44:33;14.00;90.00
22645;DHT22;11489;50.834;6.752;2023-04-16T14:46:59;14.00;90.00
22645;DHT22;11489;50.834;6.752;2023-04-16T14:49:25;14.00;89.70
22645;DHT22;11489;50.834;6.752;2023-04-16T14:51:50;13.90;89.20
22645;DHT22;11489;50.834;6.752;2023-04-16T14:54:17;13.90;89.70
22645;DHT22;11489;50.834;6.752;2023-04-16T14:56:44;13.80;89.40
22645;DHT22;11489;50.834;6.752;2023-04-16T14:59:10;13.70;89.60
22645;DHT22;11489;50.834;6.752;2023-04-16T15:01:36;13.70;89.70
22645;DHT22;11489;50.834;6.752;2023-04-16T15:04:04;13.70;89.60
22645;DHT22;11489;50.834;6.752;2023-04-16T15:06:31;13.60;90.00
22645;DHT22;11489;50.834;6.752;2023-04-16T15:08:57;13.60;90.00
22645;DHT22;11489;50.834;6.752;2023-04-16T15:11:23;13.60;90.30
22645;DHT22;11489;50.834;6.752;2023-04-16T15:13:48;13.60;90.60
22645;DHT22;11489;50.834;6.752;2023-04-16T15:16:14;13.60;91.00
22645;DHT22;11489;50.834;6.752;2023-04-16T15:18:40;13.70;91.30
22645;DHT22;11489;50.834;6.752;2023-04-16T15:21:06;13.90;91.40
22645;DHT22;11489;50.834;6.752;2023-04-16T15:23:31;14.10;91.30
22645;DHT22;11489;50.834;6.752;2023-04-16T15:25:57;14.30;91.50
22645;DHT22;11489;50.834;6.752;2023-04-16T15:28:23;14.40;91.80
22645;DHT22;11489;50.834;6.752;2023-04-16T15:30:49;14.70;91.80
22645;DHT22;11489;50.834;6.752;2023-04-16T15:33:16;14.90;91.40
22645;DHT22;11489;50.834;6.752;2023-04-16T15:35:42;15.10;91.00
22645;DHT22;11489;50.834;6.752;2023-04-16T15:38:07;15.20;90.50
22645;DHT22;11489;50.834;6.752;2023-04-16T15:40:33;15.20;89.80
22645;DHT22;11489;50.834;6.752;2023-04-16T15:42:59;15.20;89.30